• Join FlightAware (Why Join?)
  • Login
  • US Flag 
02:54PM EDT


 

Airport Tracker/Info


-or-


 

Live Flight TrackerFlight Track Log ✈ VRT51 ✈ 16-Oct-2013 ✈ KRDU - KAVL

Flight Track Log - Related Links

Times and Time Zones

All times are in EDT time to prevent confusion due to time zone crossing. See the VRT51 flight status page for this flight to view local times or setup timezone preferences in your user account.

Time Position Orientation Groundspeed Altitude Reporting Facility
EDT Latitude Longitude Course Direction KTS MPH feet Rate Location/Type
03:24PM 35.8864 -78.7686 28° Northeast 192 221 1,600  Level Washington Center
03:24PM 35.9161 -78.7492 28° Northeast 190 219 3,400 2,760 Climbing Washington Center
03:26PM 35.9756 -78.7181 23° Northeast 249 287 6,400 2,820 Climbing Washington Center
03:27PM 36.0283 -78.7692 322° Northwest 273 314 9,500 2,220 Climbing Washington Center
03:28PM 36.0833 -78.8972 298° West 312 359 12,000 1,800 Climbing Washington Center
03:29PM 36.0264 -78.9975 235° Southwest 291 335 14,000 2,880 Climbing Washington Center
03:30PM 35.9519 -79.1097 231° Southwest 318 366 17,800 3,240 Climbing Washington Center
03:32PM 35.8550 -79.2708 233° Southwest 376 433 22,400 1,980 Climbing Atlanta Center
03:33PM 35.8267 -79.4006 255° West 382 440 23,000 300 Climbing Atlanta Center
03:34PM 35.8175 -79.5419 265° West 394 453 23,000  Level Atlanta Center
03:35PM 35.7892 -79.6867 256° West 402 463 23,000  Level Atlanta Center
03:36PM 35.7686 -79.8158 259° West 416 479 23,000  Level Atlanta Center
03:37PM 35.7442 -79.9578 258° West 416 479 23,000  Level Atlanta Center
03:38PM 35.7194 -80.0947 258° West 416 479 23,000  Level Atlanta Center
03:39PM 35.6928 -80.2367 257° West 416 479 23,000  Level Atlanta Center
03:40PM 35.6661 -80.3936 258° West 421 484 23,000  Level Atlanta Center
03:41PM 35.6431 -80.5328 259° West 421 484 23,000  Level Atlanta Center
03:42PM 35.6261 -80.6739 262° West 421 484 23,000  Level Atlanta Center
03:43PM 35.6072 -80.8178 261° West 421 484 23,000  Level Atlanta Center
03:44PM 35.5878 -80.9589 260° West 421 484 23,000 -120 Level Atlanta Center
03:45PM 35.5683 -81.0975 260° West 421 484 22,800 -600 Descending Atlanta Center
03:46PM 35.5508 -81.2386 261° West 428 493 21,800 -1,500 Descending Atlanta Center
03:47PM 35.5347 -81.3592 261° West 421 484 19,800 -2,040 Descending Atlanta Center
03:48PM 35.5167 -81.4922 261° West 405 466 17,800 -2,040 Descending Atlanta Center
03:49PM 35.4964 -81.6333 260° West 396 456 15,800 -1,440 Descending Atlanta Center
03:50PM 35.4800 -81.7586 261° West 388 447 15,000 -1,380 Descending Atlanta Center
03:51PM 35.4614 -81.8817 260° West 376 433 13,100 -1,980 Descending Atlanta Center
03:52PM 35.4469 -82.0019 262° West 371 427 11,100 -1,080 Descending Atlanta Center
03:53PM 35.4300 -82.1169 260° West 363 418 11,000 -540 Descending Atlanta Center
03:54PM 35.4147 -82.2167 259° West 329 379 10,100 -1,500 Descending Atlanta Center
03:55PM 35.3908 -82.2961 250° West 272 313 8,100 -1,860 Descending Atlanta Center
03:56PM 35.3247 -82.3358 206° Southwest 245 282 6,400 -1,080 Descending Atlanta Center
03:57PM 35.2561 -82.3678 201° Southwest 261 300 6,000 -480 Descending Atlanta Center
03:58PM 35.1964 -82.4172 214° Southwest 254 292 5,500 6,000 Descending Atlanta Center
03:59PM 35.1344 -82.4617 210° Southwest 254 292 18,000 6,240 Climbing Atlanta Center
04:00PM 35.0722 -82.5083 212° Southwest 254 292 18,000  Level Atlanta Center